sensor_id;sensor_type;location;lat;lon;timestamp;pressure;altitude;pressure_sealevel;temperature;humidity
74615;BME280;63121;51.458;-0.110;2023-07-24T00:00:22;100223.97;;;20.10;61.02
74615;BME280;63121;51.458;-0.110;2023-07-24T00:02:48;100221.34;;;19.80;62.03
74615;BME280;63121;51.458;-0.110;2023-07-24T00:05:13;100217.13;;;19.77;61.93
74615;BME280;63121;51.458;-0.110;2023-07-24T00:07:39;100219.13;;;19.88;61.60
74615;BME280;63121;51.458;-0.110;2023-07-24T00:10:04;100217.38;;;19.73;62.27
74615;BME280;63121;51.458;-0.110;2023-07-24T00:12:30;100214.75;;;19.88;61.98
74615;BME280;63121;51.458;-0.110;2023-07-24T00:14:55;100224.53;;;19.85;61.81
74615;BME280;63121;51.458;-0.110;2023-07-24T00:17:21;100222.38;;;19.61;62.54
74615;BME280;63121;51.458;-0.110;2023-07-24T00:19:47;100226.19;;;19.72;62.46
74615;BME280;63121;51.458;-0.110;2023-07-24T00:22:12;100224.22;;;19.75;61.99
74615;BME280;63121;51.458;-0.110;2023-07-24T00:24:37;100230.91;;;19.33;63.51
74615;BME280;63121;51.458;-0.110;2023-07-24T00:27:03;100225.16;;;19.58;62.75
74615;BME280;63121;51.458;-0.110;2023-07-24T00:29:28;100215.97;;;19.51;63.44
74615;BME280;63121;51.458;-0.110;2023-07-24T00:31:54;100221.63;;;19.43;63.64
74615;BME280;63121;51.458;-0.110;2023-07-24T00:34:19;100219.25;;;19.55;63.09
74615;BME280;63121;51.458;-0.110;2023-07-24T00:36:45;100207.47;;;19.32;63.87
74615;BME280;63121;51.458;-0.110;2023-07-24T00:39:10;100212.25;;;19.55;63.34
74615;BME280;63121;51.458;-0.110;2023-07-24T00:41:36;100194.66;;;19.57;62.90
74615;BME280;63121;51.458;-0.110;2023-07-24T00:44:01;100211.72;;;19.64;63.38
74615;BME280;63121;51.458;-0.110;2023-07-24T00:46:27;100211.94;;;19.92;61.96
74615;BME280;63121;51.458;-0.110;2023-07-24T00:48:57;100206.28;;;19.83;62.77
74615;BME280;63121;51.458;-0.110;2023-07-24T00:51:23;100209.19;;;19.79;62.47
74615;BME280;63121;51.458;-0.110;2023-07-24T00:53:48;100198.63;;;19.80;62.55
74615;BME280;63121;51.458;-0.110;2023-07-24T00:56:14;100201.66;;;19.88;62.62
74615;BME280;63121;51.458;-0.110;2023-07-24T00:58:39;100198.78;;;19.77;62.72
74615;BME280;63121;51.458;-0.110;2023-07-24T01:01:05;100201.41;;;20.07;62.19
74615;BME280;63121;51.458;-0.110;2023-07-24T01:03:35;100198.31;;;20.01;61.69
74615;BME280;63121;51.458;-0.110;2023-07-24T01:06:03;100200.25;;;19.97;62.59
74615;BME280;63121;51.458;-0.110;2023-07-24T01:08:29;100197.03;;;20.22;61.47
74615;BME280;63121;51.458;-0.110;2023-07-24T01:10:57;100197.28;;;20.03;62.25
74615;BME280;63121;51.458;-0.110;2023-07-24T01:13:27;100196.81;;;20.11;61.81
74615;BME280;63121;51.458;-0.110;2023-07-24T01:16:00;100189.34;;;20.19;61.60
74615;BME280;63121;51.458;-0.110;2023-07-24T01:18:30;100190.94;;;20.36;61.34
74615;BME280;63121;51.458;-0.110;2023-07-24T01:20:57;100191.69;;;20.38;61.34
74615;BME280;63121;51.458;-0.110;2023-07-24T01:26:07;100182.72;;;20.42;60.46
74615;BME280;63121;51.458;-0.110;2023-07-24T01:28:33;100192.66;;;20.51;60.37
74615;BME280;63121;51.458;-0.110;2023-07-24T01:30:58;100185.97;;;20.03;61.74
74615;BME280;63121;51.458;-0.110;2023-07-24T01:33:24;100189.31;;;19.90;62.88
74615;BME280;63121;51.458;-0.110;2023-07-24T01:35:58;100189.38;;;19.89;62.67
74615;BME280;63121;51.458;-0.110;2023-07-24T01:38:24;100191.16;;;19.88;62.83
74615;BME280;63121;51.458;-0.110;2023-07-24T01:40:52;100183.19;;;20.20;61.72
74615;BME280;63121;51.458;-0.110;2023-07-24T01:43:18;100179.41;;;20.10;62.21
74615;BME280;63121;51.458;-0.110;2023-07-24T01:45:43;100183.59;;;19.98;62.76
74615;BME280;63121;51.458;-0.110;2023-07-24T01:48:09;100183.44;;;20.01;62.38
74615;BME280;63121;51.458;-0.110;2023-07-24T01:50:34;100172.69;;;20.20;61.97
74615;BME280;63121;51.458;-0.110;2023-07-24T01:53:00;100174.78;;;19.85;62.67
74615;BME280;63121;51.458;-0.110;2023-07-24T01:55:25;100167.91;;;20.13;61.98
74615;BME280;63121;51.458;-0.110;2023-07-24T01:57:50;100163.97;;;20.34;61.25
74615;BME280;63121;51.458;-0.110;2023-07-24T02:00:16;100171.28;;;20.15;61.64
74615;BME280;63121;51.458;-0.110;2023-07-24T02:02:41;100165.06;;;19.87;62.62
74615;BME280;63121;51.458;-0.110;2023-07-24T02:05:07;100171.13;;;19.87;63.27
74615;BME280;63121;51.458;-0.110;2023-07-24T02:07:32;100171.44;;;19.97;62.62
74615;BME280;63121;51.458;-0.110;2023-07-24T02:09:58;100167.34;;;20.07;62.39
74615;BME280;63121;51.458;-0.110;2023-07-24T02:12:23;100164.84;;;19.90;62.91
74615;BME280;63121;51.458;-0.110;2023-07-24T02:14:49;100165.94;;;20.02;62.40
74615;BME280;63121;51.458;-0.110;2023-07-24T02:17:17;100167.13;;;19.96;62.94
74615;BME280;63121;51.458;-0.110;2023-07-24T02:19:42;100166.97;;;19.99;62.83
74615;BME280;63121;51.458;-0.110;2023-07-24T02:22:07;100165.25;;;19.84;63.50
74615;BME280;63121;51.458;-0.110;2023-07-24T02:24:33;100165.09;;;20.01;62.32
74615;BME280;63121;51.458;-0.110;2023-07-24T02:26:58;100160.50;;;19.90;63.29
74615;BME280;63121;51.458;-0.110;2023-07-24T02:29:24;100157.22;;;20.01;62.23
74615;BME280;63121;51.458;-0.110;2023-07-24T02:31:50;100163.38;;;19.86;63.24
74615;BME280;63121;51.458;-0.110;2023-07-24T02:34:15;100153.00;;;19.84;63.11
74615;BME280;63121;51.458;-0.110;2023-07-24T02:36:41;100163.03;;;19.46;64.01
74615;BME280;63121;51.458;-0.110;2023-07-24T02:39:07;100152.72;;;19.89;62.93
74615;BME280;63121;51.458;-0.110;2023-07-24T02:41:32;100157.81;;;19.76;63.20
74615;BME280;63121;51.458;-0.110;2023-07-24T02:43:57;100155.09;;;20.08;62.18
74615;BME280;63121;51.458;-0.110;2023-07-24T02:46:23;100153.50;;;19.75;63.44
74615;BME280;63121;51.458;-0.110;2023-07-24T02:48:50;100150.50;;;19.67;63.23
74615;BME280;63121;51.458;-0.110;2023-07-24T02:51:16;100136.97;;;19.75;63.16
74615;BME280;63121;51.458;-0.110;2023-07-24T02:53:41;100144.13;;;19.71;63.27
74615;BME280;63121;51.458;-0.110;2023-07-24T02:56:06;100148.09;;;19.62;63.44
74615;BME280;63121;51.458;-0.110;2023-07-24T02:58:31;100145.41;;;19.80;63.15
74615;BME280;63121;51.458;-0.110;2023-07-24T03:01:07;100153.94;;;19.67;63.25
74615;BME280;63121;51.458;-0.110;2023-07-24T03:03:33;100146.59;;;19.74;63.11
74615;BME280;63121;51.458;-0.110;2023-07-24T03:05:59;100139.63;;;19.89;63.16
74615;BME280;63121;51.458;-0.110;2023-07-24T03:08:24;100149.53;;;19.68;63.21
74615;BME280;63121;51.458;-0.110;2023-07-24T03:10:50;100143.69;;;19.79;63.24
74615;BME280;63121;51.458;-0.110;2023-07-24T03:13:15;100150.28;;;19.86;62.71
74615;BME280;63121;51.458;-0.110;2023-07-24T03:15:40;100148.84;;;19.80;63.11
74615;BME280;63121;51.458;-0.110;2023-07-24T03:18:06;100138.50;;;19.93;62.43
74615;BME280;63121;51.458;-0.110;2023-07-24T03:20:31;100146.03;;;19.83;63.15
74615;BME280;63121;51.458;-0.110;2023-07-24T03:22:57;100140.06;;;19.81;63.08
74615;BME280;63121;51.458;-0.110;2023-07-24T03:25:22;100136.63;;;19.65;63.76
74615;BME280;63121;51.458;-0.110;2023-07-24T03:27:48;100143.06;;;19.59;63.87
74615;BME280;63121;51.458;-0.110;2023-07-24T03:30:13;100148.88;;;19.64;63.63
74615;BME280;63121;51.458;-0.110;2023-07-24T03:32:39;100143.56;;;19.50;64.29
74615;BME280;63121;51.458;-0.110;2023-07-24T03:35:05;100144.81;;;19.75;63.19
74615;BME280;63121;51.458;-0.110;2023-07-24T03:37:33;100144.84;;;19.59;63.77
74615;BME280;63121;51.458;-0.110;2023-07-24T03:39:59;100140.44;;;19.59;63.71
74615;BME280;63121;51.458;-0.110;2023-07-24T03:42:28;100147.72;;;19.70;63.57
74615;BME280;63121;51.458;-0.110;2023-07-24T03:44:54;100139.00;;;19.54;64.49
74615;BME280;63121;51.458;-0.110;2023-07-24T03:47:20;100133.22;;;19.79;63.41
74615;BME280;63121;51.458;-0.110;2023-07-24T03:49:45;100142.94;;;19.46;64.24
74615;BME280;63121;51.458;-0.110;2023-07-24T03:52:11;100142.66;;;19.51;64.09
74615;BME280;63121;51.458;-0.110;2023-07-24T03:54:37;100143.47;;;19.67;64.04
74615;BME280;63121;51.458;-0.110;2023-07-24T03:57:02;100138.31;;;19.82;63.72
74615;BME280;63121;51.458;-0.110;2023-07-24T03:59:28;100148.38;;;19.74;63.81
74615;BME280;63121;51.458;-0.110;2023-07-24T04:01:53;100151.00;;;19.74;63.36
74615;BME280;63121;51.458;-0.110;2023-07-24T04:04:20;100150.41;;;19.99;62.83
74615;BME280;63121;51.458;-0.110;2023-07-24T04:06:45;100158.91;;;20.02;63.01
74615;BME280;63121;51.458;-0.110;2023-07-24T04:09:11;100155.00;;;20.09;62.55
74615;BME280;63121;51.458;-0.110;2023-07-24T04:11:39;100153.13;;;20.12;62.05
74615;BME280;63121;51.458;-0.110;2023-07-24T04:14:04;100154.06;;;20.10;62.06
74615;BME280;63121;51.458;-0.110;2023-07-24T04:16:30;100158.06;;;20.02;62.58
74615;BME280;63121;51.458;-0.110;2023-07-24T04:18:55;100155.13;;;19.92;62.84
74615;BME280;63121;51.458;-0.110;2023-07-24T04:21:22;100162.03;;;19.79;62.76
74615;BME280;63121;51.458;-0.110;2023-07-24T04:23:47;100161.69;;;19.69;63.69
74615;BME280;63121;51.458;-0.110;2023-07-24T04:26:12;100159.84;;;19.71;63.50
74615;BME280;63121;51.458;-0.110;2023-07-24T04:28:38;100172.34;;;19.82;62.99
74615;BME280;63121;51.458;-0.110;2023-07-24T04:31:03;100165.06;;;19.87;62.31
74615;BME280;63121;51.458;-0.110;2023-07-24T04:33:29;100168.25;;;20.06;62.42
74615;BME280;63121;51.458;-0.110;2023-07-24T04:35:55;100166.41;;;20.08;62.43
74615;BME280;63121;51.458;-0.110;2023-07-24T04:38:21;100170.47;;;19.84;62.51
74615;BME280;63121;51.458;-0.110;2023-07-24T04:40:46;100169.19;;;19.91;62.41
74615;BME280;63121;51.458;-0.110;2023-07-24T04:43:12;100167.34;;;19.77;63.23
74615;BME280;63121;51.458;-0.110;2023-07-24T04:45:37;100163.38;;;19.86;63.06
74615;BME280;63121;51.458;-0.110;2023-07-24T04:48:03;100162.72;;;19.66;63.30
74615;BME280;63121;51.458;-0.110;2023-07-24T04:50:28;100160.38;;;19.78;62.97
74615;BME280;63121;51.458;-0.110;2023-07-24T04:52:55;100164.94;;;19.74;63.13
74615;BME280;63121;51.458;-0.110;2023-07-24T04:55:20;100167.47;;;19.60;63.83
74615;BME280;63121;51.458;-0.110;2023-07-24T04:57:46;100157.75;;;19.92;62.87
74615;BME280;63121;51.458;-0.110;2023-07-24T05:00:12;100168.75;;;19.99;62.66
74615;BME280;63121;51.458;-0.110;2023-07-24T05:02:38;100170.56;;;19.66;63.15
74615;BME280;63121;51.458;-0.110;2023-07-24T05:05:03;100169.06;;;19.62;63.51
74615;BME280;63121;51.458;-0.110;2023-07-24T05:07:29;100171.31;;;19.68;63.15
74615;BME280;63121;51.458;-0.110;2023-07-24T05:09:54;100169.59;;;19.53;64.10
74615;BME280;63121;51.458;-0.110;2023-07-24T05:12:20;100166.88;;;20.01;62.57
74615;BME280;63121;51.458;-0.110;2023-07-24T05:14:45;100175.53;;;19.87;62.76
74615;BME280;63121;51.458;-0.110;2023-07-24T05:17:11;100169.38;;;20.02;62.45
74615;BME280;63121;51.458;-0.110;2023-07-24T05:19:36;100168.06;;;19.95;62.16
74615;BME280;63121;51.458;-0.110;2023-07-24T05:22:02;100176.09;;;19.78;62.95
74615;BME280;63121;51.458;-0.110;2023-07-24T05:24:27;100168.50;;;20.18;61.73
74615;BME280;63121;51.458;-0.110;2023-07-24T05:26:53;100177.28;;;20.17;61.33
74615;BME280;63121;51.458;-0.110;2023-07-24T05:29:18;100177.50;;;19.98;62.29
74615;BME280;63121;51.458;-0.110;2023-07-24T05:31:43;100183.19;;;19.90;62.65
74615;BME280;63121;51.458;-0.110;2023-07-24T05:34:09;100177.09;;;20.20;61.82
74615;BME280;63121;51.458;-0.110;2023-07-24T05:36:35;100182.06;;;20.24;61.48
74615;BME280;63121;51.458;-0.110;2023-07-24T05:39:00;100182.53;;;20.45;61.11
74615;BME280;63121;51.458;-0.110;2023-07-24T05:41:26;100176.44;;;20.45;61.00
74615;BME280;63121;51.458;-0.110;2023-07-24T05:43:51;100177.41;;;20.73;60.23
74615;BME280;63121;51.458;-0.110;2023-07-24T05:46:16;100184.78;;;20.66;60.27
74615;BME280;63121;51.458;-0.110;2023-07-24T05:48:42;100185.00;;;20.63;60.04
74615;BME280;63121;51.458;-0.110;2023-07-24T05:51:07;100184.53;;;20.70;60.31
74615;BME280;63121;51.458;-0.110;2023-07-24T05:53:33;100188.91;;;20.70;60.22
74615;BME280;63121;51.458;-0.110;2023-07-24T05:56:02;100192.59;;;20.67;60.27
74615;BME280;63121;51.458;-0.110;2023-07-24T05:58:28;100183.13;;;20.65;60.56
74615;BME280;63121;51.458;-0.110;2023-07-24T06:00:54;100184.69;;;20.53;60.36
74615;BME280;63121;51.458;-0.110;2023-07-24T06:03:21;100181.50;;;20.91;59.34
74615;BME280;63121;51.458;-0.110;2023-07-24T06:05:50;100185.28;;;20.73;59.80
74615;BME280;63121;51.458;-0.110;2023-07-24T06:08:16;100180.66;;;20.90;59.26
74615;BME280;63121;51.458;-0.110;2023-07-24T06:10:41;100191.75;;;20.67;59.58
74615;BME280;63121;51.458;-0.110;2023-07-24T06:13:06;100193.41;;;20.54;60.63
74615;BME280;63121;51.458;-0.110;2023-07-24T06:15:32;100188.84;;;20.71;60.08
74615;BME280;63121;51.458;-0.110;2023-07-24T06:17:57;100191.81;;;20.94;59.28
74615;BME280;63121;51.458;-0.110;2023-07-24T06:20:22;100193.97;;;20.87;59.41
74615;BME280;63121;51.458;-0.110;2023-07-24T06:22:48;100200.75;;;20.63;60.08
74615;BME280;63121;51.458;-0.110;2023-07-24T06:25:13;100195.41;;;20.79;59.85
74615;BME280;63121;51.458;-0.110;2023-07-24T06:27:38;100195.94;;;20.98;60.13
74615;BME280;63121;51.458;-0.110;2023-07-24T06:30:04;100184.41;;;20.86;60.04
74615;BME280;63121;51.458;-0.110;2023-07-24T06:32:30;100187.25;;;20.83;60.27
74615;BME280;63121;51.458;-0.110;2023-07-24T06:34:55;100193.59;;;20.94;59.80
74615;BME280;63121;51.458;-0.110;2023-07-24T06:37:21;100199.16;;;20.75;59.65
74615;BME280;63121;51.458;-0.110;2023-07-24T06:39:46;100195.28;;;20.80;60.14
74615;BME280;63121;51.458;-0.110;2023-07-24T06:42:11;100208.94;;;20.57;60.58
74615;BME280;63121;51.458;-0.110;2023-07-24T06:44:37;100203.72;;;20.71;59.82
74615;BME280;63121;51.458;-0.110;2023-07-24T06:47:02;100202.75;;;21.01;58.95
74615;BME280;63121;51.458;-0.110;2023-07-24T06:49:27;100200.91;;;20.88;59.44
74615;BME280;63121;51.458;-0.110;2023-07-24T06:51:53;100208.34;;;21.23;58.50
74615;BME280;63121;51.458;-0.110;2023-07-24T06:54:18;100206.81;;;21.34;58.33
74615;BME280;63121;51.458;-0.110;2023-07-24T06:56:43;100206.53;;;21.38;58.30
74615;BME280;63121;51.458;-0.110;2023-07-24T06:59:09;100207.03;;;21.58;57.50
74615;BME280;63121;51.458;-0.110;2023-07-24T07:01:34;100210.59;;;21.29;58.03
74615;BME280;63121;51.458;-0.110;2023-07-24T07:03:59;100212.44;;;21.42;57.93
74615;BME280;63121;51.458;-0.110;2023-07-24T07:06:25;100215.72;;;20.89;59.10
74615;BME280;63121;51.458;-0.110;2023-07-24T07:08:50;100213.09;;;20.89;58.90
74615;BME280;63121;51.458;-0.110;2023-07-24T07:11:15;100213.31;;;21.14;58.71
74615;BME280;63121;51.458;-0.110;2023-07-24T07:13:41;100219.78;;;21.22;58.19
74615;BME280;63121;51.458;-0.110;2023-07-24T07:16:06;100219.16;;;21.46;57.55
74615;BME280;63121;51.458;-0.110;2023-07-24T07:18:32;100222.78;;;21.16;58.43
74615;BME280;63121;51.458;-0.110;2023-07-24T07:20:57;100228.44;;;21.37;58.12
74615;BME280;63121;51.458;-0.110;2023-07-24T07:23:22;100221.78;;;21.46;57.74
74615;BME280;63121;51.458;-0.110;2023-07-24T07:25:48;100223.50;;;21.32;58.12
74615;BME280;63121;51.458;-0.110;2023-07-24T07:28:15;100226.22;;;21.31;57.88
74615;BME280;63121;51.458;-0.110;2023-07-24T07:30:42;100230.47;;;21.19;58.00
74615;BME280;63121;51.458;-0.110;2023-07-24T07:33:07;100226.03;;;21.34;58.21
74615;BME280;63121;51.458;-0.110;2023-07-24T07:35:33;100222.50;;;21.62;57.43
74615;BME280;63121;51.458;-0.110;2023-07-24T07:37:59;100221.72;;;21.87;56.83
74615;BME280;63121;51.458;-0.110;2023-07-24T07:40:25;100225.75;;;21.93;56.44
74615;BME280;63121;51.458;-0.110;2023-07-24T07:42:52;100222.88;;;21.96;56.29
74615;BME280;63121;51.458;-0.110;2023-07-24T07:45:18;100216.88;;;21.54;57.23
74615;BME280;63121;51.458;-0.110;2023-07-24T07:47:44;100230.72;;;21.70;56.63
74615;BME280;63121;51.458;-0.110;2023-07-24T07:50:09;100219.19;;;21.86;56.48
74615;BME280;63121;51.458;-0.110;2023-07-24T07:52:35;100232.31;;;21.86;56.09
74615;BME280;63121;51.458;-0.110;2023-07-24T07:55:04;100218.44;;;21.84;56.62
74615;BME280;63121;51.458;-0.110;2023-07-24T07:57:34;100224.91;;;21.92;56.66
74615;BME280;63121;51.458;-0.110;2023-07-24T08:00:01;100231.09;;;21.91;56.25
74615;BME280;63121;51.458;-0.110;2023-07-24T08:02:27;100229.78;;;21.71;57.31
74615;BME280;63121;51.458;-0.110;2023-07-24T08:04:52;100228.19;;;21.69;56.95
74615;BME280;63121;51.458;-0.110;2023-07-24T08:07:17;100223.06;;;21.67;57.39
74615;BME280;63121;51.458;-0.110;2023-07-24T08:09:43;100225.03;;;22.17;55.54
74615;BME280;63121;51.458;-0.110;2023-07-24T08:12:10;100226.88;;;22.42;55.10
74615;BME280;63121;51.458;-0.110;2023-07-24T08:14:35;100227.28;;;22.48;55.18
74615;BME280;63121;51.458;-0.110;2023-07-24T08:17:01;100230.00;;;22.60;54.47
74615;BME280;63121;51.458;-0.110;2023-07-24T08:19:29;100224.22;;;22.80;53.76
74615;BME280;63121;51.458;-0.110;2023-07-24T08:21:55;100229.59;;;22.66;53.79
74615;BME280;63121;51.458;-0.110;2023-07-24T08:24:20;100225.06;;;22.55;54.13
74615;BME280;63121;51.458;-0.110;2023-07-24T08:26:45;100228.94;;;22.24;54.94
74615;BME280;63121;51.458;-0.110;2023-07-24T08:29:11;100232.44;;;22.24;55.38
74615;BME280;63121;51.458;-0.110;2023-07-24T08:31:36;100225.16;;;22.41;54.35
74615;BME280;63121;51.458;-0.110;2023-07-24T08:34:02;100227.94;;;22.26;54.46
74615;BME280;63121;51.458;-0.110;2023-07-24T08:36:29;100231.50;;;21.85;55.57
74615;BME280;63121;51.458;-0.110;2023-07-24T08:38:55;100234.78;;;21.89;56.08
74615;BME280;63121;51.458;-0.110;2023-07-24T08:41:20;100238.72;;;21.82;58.61
74615;BME280;63121;51.458;-0.110;2023-07-24T08:43:46;100241.53;;;21.10;62.20
74615;BME280;63121;51.458;-0.110;2023-07-24T08:46:12;100249.16;;;21.56;61.29
74615;BME280;63121;51.458;-0.110;2023-07-24T08:48:41;100244.91;;;21.12;61.94
74615;BME280;63121;51.458;-0.110;2023-07-24T08:51:08;100257.94;;;21.14;61.35
74615;BME280;63121;51.458;-0.110;2023-07-24T08:53:35;100262.44;;;21.26;61.46
74615;BME280;63121;51.458;-0.110;2023-07-24T08:56:05;100248.41;;;21.40;60.44
74615;BME280;63121;51.458;-0.110;2023-07-24T08:58:32;100257.34;;;21.23;61.01
74615;BME280;63121;51.458;-0.110;2023-07-24T09:00:58;100264.78;;;21.16;60.77
74615;BME280;63121;51.458;-0.110;2023-07-24T09:03:24;100263.47;;;21.23;61.05
74615;BME280;63121;51.458;-0.110;2023-07-24T09:05:50;100272.41;;;21.06;60.34
74615;BME280;63121;51.458;-0.110;2023-07-24T09:08:35;100271.59;;;21.19;60.07
74615;BME280;63121;51.458;-0.110;2023-07-24T09:11:02;100274.38;;;21.03;58.91
74615;BME280;63121;51.458;-0.110;2023-07-24T09:13:29;100275.84;;;20.78;59.76
74615;BME280;63121;51.458;-0.110;2023-07-24T09:15:54;100283.56;;;20.81;59.42
74615;BME280;63121;51.458;-0.110;2023-07-24T09:18:21;100274.72;;;20.82;59.02
74615;BME280;63121;51.458;-0.110;2023-07-24T09:20:47;100282.69;;;20.66;59.47
74615;BME280;63121;51.458;-0.110;2023-07-24T09:23:13;100277.94;;;20.87;58.84
74615;BME280;63121;51.458;-0.110;2023-07-24T09:25:41;100281.56;;;21.28;58.29
74615;BME280;63121;51.458;-0.110;2023-07-24T09:28:11;100284.94;;;21.30;57.57
74615;BME280;63121;51.458;-0.110;2023-07-24T09:30:37;100293.94;;;21.11;56.95
74615;BME280;63121;51.458;-0.110;2023-07-24T09:33:03;100297.59;;;21.23;57.30
74615;BME280;63121;51.458;-0.110;2023-07-24T09:35:29;100297.13;;;21.17;56.33
74615;BME280;63121;51.458;-0.110;2023-07-24T09:38:05;100302.56;;;21.42;55.86
74615;BME280;63121;51.458;-0.110;2023-07-24T09:40:38;100299.94;;;20.99;57.54
74615;BME280;63121;51.458;-0.110;2023-07-24T09:43:26;100300.00;;;21.41;56.21
74615;BME280;63121;51.458;-0.110;2023-07-24T09:45:53;100314.56;;;21.32;56.17
74615;BME280;63121;51.458;-0.110;2023-07-24T09:48:20;100317.75;;;21.79;53.91
74615;BME280;63121;51.458;-0.110;2023-07-24T09:50:47;100318.84;;;21.89;53.59
74615;BME280;63121;51.458;-0.110;2023-07-24T09:53:33;100317.31;;;22.26;53.64
74615;BME280;63121;51.458;-0.110;2023-07-24T09:56:04;100314.09;;;22.61;52.67
74615;BME280;63121;51.458;-0.110;2023-07-24T09:58:36;100329.94;;;22.34;52.85
74615;BME280;63121;51.458;-0.110;2023-07-24T10:01:03;100334.84;;;21.99;52.88
74615;BME280;63121;51.458;-0.110;2023-07-24T10:03:33;100326.16;;;22.11;52.79
74615;BME280;63121;51.458;-0.110;2023-07-24T10:05:59;100329.44;;;22.15;52.65
74615;BME280;63121;51.458;-0.110;2023-07-24T10:08:26;100339.84;;;22.03;53.10
74615;BME280;63121;51.458;-0.110;2023-07-24T10:10:51;100331.44;;;22.51;51.83
74615;BME280;63121;51.458;-0.110;2023-07-24T10:13:18;100339.59;;;22.73;51.98
74615;BME280;63121;51.458;-0.110;2023-07-24T10:15:45;100339.00;;;22.16;52.78
74615;BME280;63121;51.458;-0.110;2023-07-24T10:18:11;100346.75;;;22.04;53.59
74615;BME280;63121;51.458;-0.110;2023-07-24T10:20:39;100346.81;;;22.57;52.17
74615;BME280;63121;51.458;-0.110;2023-07-24T10:23:06;100354.00;;;22.81;50.77
74615;BME280;63121;51.458;-0.110;2023-07-24T10:25:33;100352.75;;;22.73;50.34
74615;BME280;63121;51.458;-0.110;2023-07-24T10:28:06;100361.34;;;22.63;51.48
74615;BME280;63121;51.458;-0.110;2023-07-24T10:30:43;100359.22;;;22.55;51.57
74615;BME280;63121;51.458;-0.110;2023-07-24T10:33:20;100372.44;;;22.41;51.08
74615;BME280;63121;51.458;-0.110;2023-07-24T10:35:48;100370.09;;;22.63;51.06
74615;BME280;63121;51.458;-0.110;2023-07-24T10:38:15;100364.16;;;22.47;51.03
74615;BME280;63121;51.458;-0.110;2023-07-24T10:40:42;100375.41;;;23.02;49.20
74615;BME280;63121;51.458;-0.110;2023-07-24T10:43:12;100379.50;;;23.06;49.72
74615;BME280;63121;51.458;-0.110;2023-07-24T10:45:48;100378.00;;;22.89;49.69
74615;BME280;63121;51.458;-0.110;2023-07-24T10:48:18;100380.03;;;23.37;48.77
74615;BME280;63121;51.458;-0.110;2023-07-24T10:50:45;100382.97;;;23.06;49.22
74615;BME280;63121;51.458;-0.110;2023-07-24T10:53:13;100387.09;;;23.36;48.98
74615;BME280;63121;51.458;-0.110;2023-07-24T10:55:41;100386.41;;;23.58;48.15
74615;BME280;63121;51.458;-0.110;2023-07-24T10:58:07;100394.25;;;23.47;48.32
74615;BME280;63121;51.458;-0.110;2023-07-24T11:00:34;100395.59;;;23.40;48.93
74615;BME280;63121;51.458;-0.110;2023-07-24T11:02:59;100403.28;;;23.56;48.43
74615;BME280;63121;51.458;-0.110;2023-07-24T11:05:25;100402.72;;;23.63;48.35
74615;BME280;63121;51.458;-0.110;2023-07-24T11:07:50;100408.91;;;23.38;49.04
74615;BME280;63121;51.458;-0.110;2023-07-24T11:10:17;100410.50;;;23.02;50.03
74615;BME280;63121;51.458;-0.110;2023-07-24T11:12:42;100417.00;;;23.09;50.21
74615;BME280;63121;51.458;-0.110;2023-07-24T11:15:08;100418.81;;;22.29;52.32
74615;BME280;63121;51.458;-0.110;2023-07-24T11:17:34;100429.13;;;22.32;52.51
74615;BME280;63121;51.458;-0.110;2023-07-24T11:20:12;100431.91;;;22.83;51.13
74615;BME280;63121;51.458;-0.110;2023-07-24T11:22:39;100436.91;;;23.26;49.81
74615;BME280;63121;51.458;-0.110;2023-07-24T11:25:05;100438.41;;;24.06;47.65
74615;BME280;63121;51.458;-0.110;2023-07-24T11:27:32;100440.34;;;23.65;47.47
74615;BME280;63121;51.458;-0.110;2023-07-24T11:29:57;100447.84;;;23.59;47.94
74615;BME280;63121;51.458;-0.110;2023-07-24T11:32:23;100439.88;;;24.10;46.96
74615;BME280;63121;51.458;-0.110;2023-07-24T11:34:49;100434.16;;;23.79;47.27
74615;BME280;63121;51.458;-0.110;2023-07-24T11:37:15;100443.28;;;23.86;47.00
74615;BME280;63121;51.458;-0.110;2023-07-24T11:39:41;100441.94;;;23.68;47.10
74615;BME280;63121;51.458;-0.110;2023-07-24T11:42:07;100450.72;;;23.56;47.81
74615;BME280;63121;51.458;-0.110;2023-07-24T11:44:32;100459.25;;;23.21;48.63
74615;BME280;63121;51.458;-0.110;2023-07-24T11:47:05;100467.09;;;22.55;49.83
74615;BME280;63121;51.458;-0.110;2023-07-24T11:49:32;100463.13;;;22.35;49.84
74615;BME280;63121;51.458;-0.110;2023-07-24T11:52:03;100468.47;;;22.61;48.95
74615;BME280;63121;51.458;-0.110;2023-07-24T11:54:28;100462.41;;;22.73;48.55
74615;BME280;63121;51.458;-0.110;2023-07-24T11:56:54;100468.53;;;22.73;49.01
74615;BME280;63121;51.458;-0.110;2023-07-24T11:59:19;100464.56;;;22.26;49.90
74615;BME280;63121;51.458;-0.110;2023-07-24T12:01:46;100471.66;;;22.39;49.84
74615;BME280;63121;51.458;-0.110;2023-07-24T12:04:13;100466.75;;;22.47;49.70
74615;BME280;63121;51.458;-0.110;2023-07-24T12:06:38;100474.44;;;22.23;49.94
74615;BME280;63121;51.458;-0.110;2023-07-24T12:09:04;100477.66;;;22.41;50.60
74615;BME280;63121;51.458;-0.110;2023-07-24T12:11:40;100475.78;;;22.83;49.82
74615;BME280;63121;51.458;-0.110;2023-07-24T12:14:06;100482.75;;;23.37;47.87
74615;BME280;63121;51.458;-0.110;2023-07-24T12:16:34;100483.59;;;23.50;47.03
74615;BME280;63121;51.458;-0.110;2023-07-24T12:18:59;100484.75;;;24.21;45.49
74615;BME280;63121;51.458;-0.110;2023-07-24T12:21:24;100485.16;;;24.04;45.28
74615;BME280;63121;51.458;-0.110;2023-07-24T12:23:50;100476.22;;;24.54;44.26
74615;BME280;63121;51.458;-0.110;2023-07-24T12:26:15;100479.25;;;24.61;44.66
74615;BME280;63121;51.458;-0.110;2023-07-24T12:28:40;100481.44;;;24.06;45.86
74615;BME280;63121;51.458;-0.110;2023-07-24T12:31:06;100494.97;;;23.63;46.81
74615;BME280;63121;51.458;-0.110;2023-07-24T12:33:31;100487.22;;;22.56;49.24
74615;BME280;63121;51.458;-0.110;2023-07-24T12:35:57;100496.69;;;22.59;49.32
74615;BME280;63121;51.458;-0.110;2023-07-24T12:38:22;100503.81;;;23.11;47.80